METAR Data
IDs: Format: Raw Decoded Include TAF

Data at: 1058 UTC 26 Sep 2018

KMAN 261055Z AUTO 00000KT 10SM 04/01 A3024 RMK A01
KMAN 261035Z AUTO 00000KT 10SM 04/M00 A3024 RMK A01
KMAN 261015Z AUTO 00000KT 10SM 04/00 A3023 RMK A01
KMAN 260955Z AUTO 00000KT 10SM 03/00 A3023 RMK A01
KMAN 260935Z AUTO 00000KT 10SM 05/02 A3023 RMK A01
KMAN 260915Z AUTO 00000KT 10SM 04/01 A3023 RMK A01
KMAN 260855Z AUTO 00000KT 10SM 05/02 A3022 RMK A01
KMAN 260835Z AUTO 00000KT 10SM 05/02 A3023 RMK A01
KMAN 260815Z AUTO 00000KT 10SM 05/02 A3022 RMK A01
KMAN 260755Z AUTO 00000KT 10SM 06/02 A3022 RMK A01
KMAN 260735Z AUTO 00000KT 10SM 06/02 A3022 RMK A01
KMAN 260715Z AUTO 00000KT 10SM 06/01 A3023 RMK A01
KMAN 260655Z AUTO 14003KT 10SM 06/02 A3022 RMK A01
KMAN 260635Z AUTO 15004KT 10SM 06/02 A3022 RMK A01
KMAN 260615Z AUTO 00000KT 10SM 07/02 A3022 RMK A01
KMAN 260555Z AUTO 00000KT 10SM 09/02 A3021 RMK A01
KMAN 260535Z AUTO 00000KT 10SM 08/02 A3021 RMK A01
KMAN 260515Z AUTO 16004KT 10SM CLR 08/02 A3021 RMK A01
KMAN 260455Z AUTO 00000KT 10SM 10/02 A3020 RMK A01
KMAN 260435Z AUTO 06003KT 10SM 11/02 A3020 RMK A01
KMAN 260415Z AUTO 00000KT 10SM 10/02 A3020 RMK A01
KMAN 260355Z AUTO 00000KT 10SM 11/02 A3020 RMK A01
KMAN 260335Z AUTO 00000KT 10SM 12/02 A3020 RMK A01
KMAN 260315Z AUTO 00000KT 10SM 13/01 A3020 RMK A01
KMAN 260255Z AUTO 00000KT 10SM 13/01 A3020 RMK A01
KMAN 260235Z AUTO 00000KT 10SM 13/02 A3020 RMK A01
KMAN 260215Z AUTO 00000KT 10SM CLR 15/01 A3019 RMK A01
KMAN 260155Z AUTO 28003KT 10SM CLR 18/M02 A3020 RMK A01
KMAN 260135Z AUTO 27004KT 10SM CLR 19/M02 A3019 RMK A01
KMAN 260115Z AUTO 29004KT 7SM CLR 19/M02 A3019 RMK A01
KMAN 260055Z AUTO 32005KT 9SM CLR 20/M02 A3019 RMK A01
KMAN 260035Z AUTO VRB04KT 10SM CLR 20/M04 A3020 RMK A01
KMAN 260015Z AUTO 32005KT 10SM CLR 20/M03 A3019 RMK A01
KMAN 252355Z AUTO 34004KT 10SM CLR 20/M03 A3020 RMK A01
KMAN 252335Z AUTO 36007KT 10SM CLR 20/M04 A3020 RMK A01
KMAN 252315Z AUTO 36006KT 10SM CLR 21/M04 A3020 RMK A01
KMAN 252255Z AUTO 34008KT 10SM CLR 21/M03 A3020 RMK A01
KMAN 252235Z AUTO 29006KT 10SM CLR 21/M03 A3020 RMK A01
KMAN 252215Z AUTO 31007KT 10SM CLR 21/M02 A3020 RMK A01
KMAN 252155Z AUTO 28004KT 10SM CLR 21/M02 A3021 RMK A01
KMAN 252135Z AUTO 24006KT 10SM CLR 20/M02 A3021 RMK A01
KMAN 252115Z AUTO VRB04KT 10SM CLR 20/M03 A3022 RMK A01
KMAN 252055Z AUTO 23005KT 10SM CLR 19/M01 A3023 RMK A01
KMAN 252035Z AUTO 21007KT 10SM CLR 19/M01 A3024 RMK A01
KMAN 252015Z AUTO VRB04KT 10SM CLR 19/M01 A3025 RMK A01
KMAN 251955Z AUTO 00000KT 10SM CLR 19/M00 A3026 RMK A01
KMAN 251935Z AUTO 00000KT 10SM CLR 18/M01 A3026 RMK A01
KMAN 251915Z AUTO VRB04KT 10SM CLR 18/M00 A3026 RMK A01
KMAN 251855Z AUTO 00000KT 10SM CLR 17/00 A3027 RMK A01
KMAN 251835Z AUTO 32004KT 10SM CLR 16/00 A3027 RMK A01
KMAN 251815Z AUTO 00000KT 10SM CLR 16/01 A3028 RMK A01
KMAN 251755Z AUTO 30004KT 10SM CLR 15/01 A3028 RMK A01
KMAN 251735Z AUTO 00000KT 10SM CLR 15/02 A3028 RMK A01
KMAN 251715Z AUTO 00000KT 10SM CLR 13/02 A3029 RMK A01
KMAN 251655Z AUTO 00000KT 10SM CLR 13/02 A3029 RMK A01
KMAN 251635Z AUTO 00000KT 10SM CLR 12/02 A3029 RMK A01
KMAN 251615Z AUTO 00000KT 10SM CLR 11/02 A3029 RMK A01
KMAN 251555Z AUTO 00000KT 10SM CLR 10/03 A3029 RMK A01
KMAN 251535Z AUTO 00000KT 10SM CLR 09/03 A3028 RMK A01
KMAN 251515Z AUTO 00000KT 10SM CLR 07/02 A3028 RMK A01
KMAN 251455Z AUTO 15004KT 10SM CLR 06/02 A3028 RMK A01
KMAN 251435Z AUTO 00000KT 10SM CLR 05/02 A3027 RMK A01
KMAN 251415Z AUTO 10003KT 10SM CLR 04/02 A3026 RMK A01
KMAN 251355Z AUTO 00000KT 10SM 04/01 A3026 RMK A01
KMAN 251335Z AUTO 00000KT 10SM 05/02 A3025 RMK A01
KMAN 251315Z AUTO 00000KT 10SM 04/02 A3025 RMK A01
KMAN 251255Z AUTO 00000KT 10SM 03/01 A3024 RMK A01
KMAN 251235Z AUTO 15003KT 10SM 05/02 A3024 RMK A01
KMAN 251215Z AUTO 00000KT 10SM CLR 06/01 A3023 RMK A01
KMAN 251155Z AUTO 00000KT 10SM 07/01 A3023 RMK A01
KMAN 251135Z AUTO 00000KT 10SM 09/01 A3022 RMK A01
KMAN 251115Z AUTO 00000KT 10SM 09/01 A3021 RMK A01
KMAN 251055Z AUTO 29008KT 10SM CLR 09/01 A3020 RMK A01
KMAN 251035Z AUTO 29008KT 10SM CLR 09/01 A3020 RMK A01
KMAN 251015Z AUTO 28005KT 10SM 09/01 A3019 RMK A01
KMAN 250955Z AUTO 28007KT 10SM 09/01 A3019 RMK A01
KMAN 250935Z AUTO 29008KT 10SM 09/01 A3019 RMK A01
KMAN 250915Z AUTO 28007KT 10SM 09/01 A3020 RMK A01
KMAN 250855Z AUTO VRB04KT 10SM 10/01 A3019 RMK A01
KMAN 250835Z AUTO VRB06KT 10SM 11/00 A3019 RMK A01
KMAN 250815Z AUTO 34005KT 10SM 11/00 A3018 RMK A01
KMAN 250655Z AUTO 30008KT 10SM 12/M00 A3017 RMK A01
KMAN 250635Z AUTO 29009KT 10SM 13/M00 A3017 RMK A01
KMAN 250615Z AUTO 30006KT 10SM 12/M00 A3017 RMK A01
KMAN 250555Z AUTO 25005KT 10SM CLR 12/00 A3017 RMK A01
KMAN 250515Z AUTO 25005KT 10SM 11/00 A3015 RMK A01
KMAN 250455Z AUTO 00000KT 10SM 13/M00 A3015 RMK A01
KMAN 250435Z AUTO 00000KT 10SM 14/M00 A3015 RMK A01
KMAN 250415Z AUTO 35004KT 10SM 15/M00 A3014 RMK A01
KMAN 250355Z AUTO 32005KT 10SM 15/M01 A3014 RMK A01
KMAN 250335Z AUTO 32006KT 10SM 16/M01 A3013 RMK A01
KMAN 250315Z AUTO 32008KT 10SM 17/M02 A3012 RMK A01
KMAN 250255Z AUTO 32007KT 10SM 18/M02 A3012 RMK A01
KMAN 250235Z AUTO 32008KT 10SM 18/M02 A3011 RMK A01
KMAN 250215Z AUTO 32009KT 10SM 19/M02 A3010 RMK A01
KMAN 250155Z AUTO 32009KT 10SM CLR 19/M02 A3010 RMK A01
KMAN 250135Z AUTO 31009KT 10SM CLR 19/M02 A3009 RMK A01
KMAN 250115Z AUTO 32010KT 10SM CLR 20/M03 A3009 RMK A01
KMAN 250055Z AUTO 30010KT 10SM CLR 20/M03 A3009 RMK A01
KMAN 250035Z AUTO 30009KT 10SM CLR 20/M04 A3009 RMK A01
KMAN 250015Z AUTO 31011G19KT 10SM CLR 20/M03 A3009 RMK A01
KMAN 242355Z AUTO 31013KT 10SM CLR 21/M03 A3009 RMK A01
KMAN 242335Z AUTO 32010KT 10SM CLR 20/M04 A3008 RMK A01
KMAN 242315Z AUTO 29011KT 10SM CLR 21/M04 A3008 RMK A01